Time;durP1;ratioP1;P1;durP2;ratioP2;P2;SDS_P1;SDS_P2;PMS_P1;PMS_P2;Temp;Humidity;BMP_temperature;BMP_pressure;BME280_temperature;BME280_humidity;BME280_pressure;Samples;Min_cycle;Max_cycle;Signal;HPM_P1;HPM_P2
2023/02/07 00:01:52;;;;;;;3.33;3.10;;;15.90;63.80;;;;;;5045816;28;20476;-28
2023/02/07 00:04:18;;;;;;;3.53;3.22;;;15.90;63.70;;;;;;5044957;28;20061;-15
2023/02/07 00:06:44;;;;;;;3.67;3.30;;;15.80;63.80;;;;;;5046984;28;20509;-12
2023/02/07 00:09:10;;;;;;;2.90;2.70;;;15.80;64.00;;;;;;5044886;28;20171;-12
2023/02/07 00:11:39;;;;;;;4.25;3.17;;;15.70;63.90;;;;;;5045564;28;20556;-12
2023/02/07 00:14:04;;;;;;;3.83;3.42;;;15.70;63.90;;;;;;5046822;28;20036;-14
2023/02/07 00:16:30;;;;;;;3.55;3.25;;;15.70;63.90;;;;;;5042903;28;20516;-12
2023/02/07 00:18:55;;;;;;;3.65;3.20;;;15.70;63.80;;;;;;5047551;28;20045;-12
2023/02/07 00:21:22;;;;;;;3.38;3.10;;;15.70;63.80;;;;;;5043740;28;20509;-12
2023/02/07 00:23:48;;;;;;;5.03;4.10;;;15.70;63.80;;;;;;5045660;28;20046;-12
2023/02/07 00:26:14;;;;;;;4.63;3.40;;;15.70;63.80;;;;;;5048254;28;20052;-12
2023/02/07 00:28:40;;;;;;;3.90;3.60;;;15.70;63.80;;;;;;5055089;28;20045;-13
2023/02/07 00:31:06;;;;;;;6.82;3.30;;;15.70;63.70;;;;;;5046014;28;20090;-12
2023/02/07 00:33:32;;;;;;;2.97;2.78;;;15.80;63.30;;;;;;5044738;28;20276;-13
2023/02/07 00:35:59;;;;;;;3.65;3.38;;;15.80;63.30;;;;;;5047990;28;20362;-12
2023/02/07 00:38:24;;;;;;;3.80;3.35;;;15.90;63.10;;;;;;5049478;28;20037;-12
2023/02/07 00:40:50;;;;;;;3.47;3.10;;;15.80;63.30;;;;;;5048113;28;20051;-13
2023/02/07 00:43:16;;;;;;;3.78;2.85;;;15.80;63.20;;;;;;5048313;28;20047;-19
2023/02/07 00:45:41;;;;;;;3.58;3.28;;;15.90;63.00;;;;;;5046811;28;20056;-12
2023/02/07 00:48:07;;;;;;;3.10;2.90;;;15.80;63.20;;;;;;5048805;28;20771;-19
2023/02/07 00:50:32;;;;;;;3.55;3.20;;;15.70;63.40;;;;;;5046648;28;20052;-12
2023/02/07 00:52:58;;;;;;;4.20;3.85;;;15.70;63.50;;;;;;5049251;28;20048;-14
2023/02/07 00:55:23;;;;;;;4.78;3.08;;;15.90;62.80;;;;;;5047156;28;20438;-27
2023/02/07 00:57:49;;;;;;;3.17;2.97;;;15.80;63.10;;;;;;5047525;28;20048;-13
2023/02/07 01:00:15;;;;;;;3.40;3.20;;;15.80;62.90;;;;;;5048827;28;20410;-13
2023/02/07 01:02:40;;;;;;;3.33;3.03;;;15.80;62.90;;;;;;5047225;28;20064;-33
2023/02/07 01:05:06;;;;;;;3.22;2.97;;;15.70;63.00;;;;;;5064083;28;20178;-12
2023/02/07 01:07:32;;;;;;;3.53;3.22;;;15.70;63.00;;;;;;5046353;28;20041;-12
2023/02/07 01:09:58;;;;;;;2.95;2.75;;;15.60;63.20;;;;;;5048466;28;20024;-12
2023/02/07 01:12:23;;;;;;;3.10;2.90;;;15.70;63.20;;;;;;5045904;28;20051;-11
2023/02/07 01:14:49;;;;;;;3.00;2.80;;;15.70;63.10;;;;;;5046757;28;20736;-12
2023/02/07 01:17:15;;;;;;;3.15;2.88;;;15.70;63.00;;;;;;5048086;28;20037;-12
2023/02/07 01:19:40;;;;;;;3.42;3.13;;;15.70;63.10;;;;;;5046504;28;20039;-12
2023/02/07 01:22:06;;;;;;;3.15;2.95;;;15.70;63.00;;;;;;5048511;28;20042;-14
2023/02/07 01:24:34;;;;;;;3.60;3.30;;;15.60;63.00;;;;;;5047646;28;20092;-12
2023/02/07 01:26:59;;;;;;;3.40;2.85;;;15.70;62.80;;;;;;5047704;28;20080;-12
2023/02/07 01:29:25;;;;;;;3.75;2.90;;;15.60;62.90;;;;;;5045966;28;20133;-12
2023/02/07 01:31:52;;;;;;;3.42;3.13;;;15.60;62.90;;;;;;5044962;28;20052;-14
2023/02/07 01:34:18;;;;;;;3.22;3.03;;;15.60;62.90;;;;;;5047239;28;20048;-12
2023/02/07 01:36:43;;;;;;;3.50;3.20;;;15.70;62.80;;;;;;5045119;28;20033;-13
2023/02/07 01:39:09;;;;;;;3.53;3.22;;;15.70;62.50;;;;;;5048246;28;20247;-13
2023/02/07 01:41:35;;;;;;;3.65;3.33;;;15.60;62.60;;;;;;5047159;28;20037;-12
2023/02/07 01:44:05;;;;;;;3.50;3.17;;;15.60;62.50;;;;;;5048335;28;20052;-14
2023/02/07 01:46:32;;;;;;;3.85;3.40;;;15.70;62.40;;;;;;5047771;28;20151;-11
2023/02/07 01:49:04;;;;;;;3.60;3.30;;;15.70;62.30;;;;;;5047568;28;20430;-12
2023/02/07 01:51:29;;;;;;;4.00;3.70;;;15.60;62.40;;;;;;5052247;28;20551;-11
2023/02/07 01:53:56;;;;;;;4.68;4.28;;;15.70;62.30;;;;;;5046181;28;20040;-12
2023/02/07 01:56:22;;;;;;;3.60;3.40;;;15.70;62.30;;;;;;5039229;28;20095;-12
2023/02/07 01:58:47;;;;;;;5.30;4.78;;;15.60;62.20;;;;;;5044707;28;20441;-15
2023/02/07 02:01:18;;;;;;;4.25;3.90;;;15.60;62.40;;;;;;5048779;28;20036;-14
2023/02/07 02:03:46;;;;;;;4.72;4.32;;;15.60;62.40;;;;;;5050379;28;20153;-13
2023/02/07 02:06:11;;;;;;;4.43;4.03;;;15.60;62.50;;;;;;5051680;28;20127;-12
2023/02/07 02:08:37;;;;;;;3.95;3.40;;;15.70;62.10;;;;;;5043919;28;20117;-10
2023/02/07 02:11:29;;;;;;;4.80;4.38;;;15.70;62.10;;;;;;5045505;28;21734;-10
2023/02/07 02:14:23;;;;;;;4.57;4.20;;;15.60;62.10;;;;;;5045561;28;20063;-11
2023/02/07 02:16:53;;;;;;;4.43;4.03;;;15.60;62.10;;;;;;5046336;28;20512;-11
2023/02/07 02:19:37;;;;;;;5.30;4.82;;;15.70;62.00;;;;;;5051656;28;20033;-10
2023/02/07 02:22:03;;;;;;;4.72;4.18;;;15.70;61.70;;;;;;5045507;28;20060;-10
2023/02/07 02:24:37;;;;;;;5.25;4.05;;;15.80;61.60;;;;;;5044645;28;20025;-11
2023/02/07 02:27:10;;;;;;;4.70;4.30;;;15.70;61.70;;;;;;5047714;28;20051;-21
2023/02/07 02:30:07;;;;;;;4.47;4.07;;;15.70;61.80;;;;;;5046895;28;20064;-15
2023/02/07 02:32:51;;;;;;;4.25;3.88;;;15.70;61.80;;;;;;5048227;28;20051;-11
2023/02/07 02:35:33;;;;;;;4.20;3.80;;;15.70;61.50;;;;;;5049039;28;20044;-10
2023/02/07 02:38:15;;;;;;;4.40;4.00;;;15.70;61.60;;;;;;5044755;28;20294;-10
2023/02/07 02:41:03;;;;;;;4.43;4.03;;;15.70;61.60;;;;;;5046711;28;20067;-10
2023/02/07 02:43:46;;;;;;;4.43;4.10;;;15.70;61.70;;;;;;5047823;28;20041;-11
2023/02/07 02:46:23;;;;;;;4.22;3.65;;;15.60;61.70;;;;;;5048238;28;20048;-11
2023/02/07 02:48:49;;;;;;;4.05;3.70;;;15.60;61.70;;;;;;5050554;28;20041;-13
2023/02/07 02:51:15;;;;;;;4.20;3.90;;;15.70;61.60;;;;;;5048946;28;20040;-11
2023/02/07 02:53:50;;;;;;;3.92;3.63;;;15.60;61.60;;;;;;5052614;28;20056;-10
2023/02/07 02:56:43;;;;;;;4.88;4.30;;;15.70;61.50;;;;;;5047741;28;20472;-10
2023/02/07 02:59:14;;;;;;;4.40;4.00;;;15.60;61.50;;;;;;5045627;28;20047;-13
2023/02/07 03:01:50;;;;;;;5.13;3.97;;;15.70;61.50;;;;;;5050419;28;20044;-10
2023/02/07 03:04:43;;;;;;;4.13;3.72;;;15.60;61.40;;;;;;5045965;28;20040;-11
2023/02/07 03:07:20;;;;;;;3.95;3.65;;;15.50;61.70;;;;;;5045761;28;20053;-10
2023/02/07 03:10:00;;;;;;;3.60;3.30;;;15.60;61.60;;;;;;5046083;28;20045;-10
2023/02/07 03:12:31;;;;;;;3.75;3.45;;;15.70;61.30;;;;;;5046775;28;20174;-10
2023/02/07 03:15:02;;;;;;;3.90;3.58;;;15.60;61.60;;;;;;5049575;28;20180;-11
2023/02/07 03:17:37;;;;;;;3.55;3.25;;;15.60;61.30;;;;;;5046515;28;20055;-15
2023/02/07 03:20:10;;;;;;;3.85;3.55;;;15.70;61.00;;;;;;5046639;28;20478;-11
2023/02/07 03:22:36;;;;;;;3.50;3.20;;;15.70;61.10;;;;;;5048271;28;20136;-13
2023/02/07 03:25:02;;;;;;;3.38;3.13;;;15.60;61.40;;;;;;5049304;28;20236;-11
2023/02/07 03:27:28;;;;;;;3.60;3.30;;;15.60;61.50;;;;;;5048423;28;20037;-10
2023/02/07 03:29:56;;;;;;;3.13;2.85;;;15.50;61.50;;;;;;5049513;28;20041;-12
2023/02/07 03:32:24;;;;;;;3.72;3.40;;;15.60;61.50;;;;;;5045503;28;20057;-10
2023/02/07 03:35:19;;;;;;;3.78;3.47;;;15.50;61.50;;;;;;5038218;28;20051;-21
2023/02/07 03:37:53;;;;;;;3.45;3.15;;;15.50;61.30;;;;;;5032005;28;20040;-10
2023/02/07 03:40:19;;;;;;;3.05;2.85;;;15.60;61.20;;;;;;5034694;28;20227;-17
2023/02/07 03:42:49;;;;;;;3.65;3.35;;;15.60;61.30;;;;;;5034841;28;20084;-10
2023/02/07 03:45:16;;;;;;;3.10;2.90;;;15.50;61.50;;;;;;5034604;28;20041;-10
2023/02/07 03:47:41;;;;;;;4.03;3.72;;;15.50;61.60;;;;;;5030691;28;20137;-10
2023/02/07 03:50:07;;;;;;;3.75;3.08;;;15.50;61.50;;;;;;5034095;28;20052;-11
2023/02/07 03:52:33;;;;;;;3.42;3.13;;;15.50;61.40;;;;;;5029740;28;20147;-11
2023/02/07 03:54:58;;;;;;;3.10;2.90;;;15.50;61.50;;;;;;5037027;28;20122;-12
2023/02/07 03:57:24;;;;;;;6.25;3.05;;;15.50;61.40;;;;;;5034301;28;20040;-10
2023/02/07 03:59:49;;;;;;;3.22;3.00;;;15.50;61.10;;;;;;5034308;28;20048;-10
2023/02/07 04:02:15;;;;;;;3.60;3.30;;;15.60;61.30;;;;;;5033377;28;20048;-16
2023/02/07 04:04:41;;;;;;;3.20;2.90;;;15.50;61.20;;;;;;5031906;28;20170;-14
2023/02/07 04:07:06;;;;;;;3.45;3.15;;;15.50;61.10;;;;;;5034922;28;20056;-10
2023/02/07 04:09:32;;;;;;;2.70;2.50;;;15.50;61.40;;;;;;5033623;28;20048;-10
2023/02/07 04:11:57;;;;;;;2.58;2.35;;;15.50;61.30;;;;;;5036753;28;20043;-10
2023/02/07 04:14:23;;;;;;;3.10;2.80;;;15.60;61.20;;;;;;5035945;28;20052;-13
2023/02/07 04:16:49;;;;;;;3.10;2.80;;;15.50;61.20;;;;;;5034357;28;20906;-11
2023/02/07 04:19:14;;;;;;;3.30;2.88;;;15.50;61.40;;;;;;5034484;28;20048;-27
2023/02/07 04:21:40;;;;;;;3.25;3.00;;;15.50;61.20;;;;;;5035169;28;20097;-15
2023/02/07 04:24:06;;;;;;;2.90;2.70;;;15.50;60.90;;;;;;5033950;28;20501;-10
2023/02/07 04:26:31;;;;;;;2.70;2.50;;;15.50;61.20;;;;;;5039578;28;20056;-11
2023/02/07 04:28:57;;;;;;;2.75;2.55;;;15.40;61.40;;;;;;5039590;28;20045;-13
2023/02/07 04:31:22;;;;;;;2.80;2.60;;;15.50;61.20;;;;;;5034736;28;20048;-10
2023/02/07 04:33:48;;;;;;;2.50;2.40;;;15.50;61.30;;;;;;5034611;28;20542;-17
2023/02/07 04:36:14;;;;;;;3.22;2.63;;;15.40;61.40;;;;;;5033026;28;20070;-32
2023/02/07 04:38:39;;;;;;;2.65;2.45;;;15.40;61.40;;;;;;5034618;28;20394;-10
2023/02/07 04:41:05;;;;;;;2.50;2.30;;;15.30;61.50;;;;;;5035031;28;20563;-10
2023/02/07 04:43:31;;;;;;;2.60;2.30;;;15.40;61.50;;;;;;5031780;28;20078;-10
2023/02/07 04:45:57;;;;;;;2.67;2.47;;;15.40;61.40;;;;;;5032344;28;20084;-12
2023/02/07 04:48:22;;;;;;;2.55;2.35;;;15.30;61.60;;;;;;5035019;28;20049;-19
2023/02/07 04:50:48;;;;;;;2.40;2.20;;;15.20;61.80;;;;;;5037990;28;20672;-10
2023/02/07 04:53:14;;;;;;;2.08;1.90;;;15.30;61.60;;;;;;5036136;28;20606;-14
2023/02/07 04:55:39;;;;;;;2.42;2.22;;;15.30;61.70;;;;;;5035933;28;20055;-17
2023/02/07 04:58:05;;;;;;;2.30;2.10;;;15.20;61.70;;;;;;5035026;28;20142;-17
2023/02/07 05:00:31;;;;;;;2.17;2.08;;;15.30;61.60;;;;;;5034837;28;21079;-10
2023/02/07 05:02:56;;;;;;;1.90;1.80;;;15.20;61.70;;;;;;5035966;28;20056;-15
2023/02/07 05:05:22;;;;;;;2.03;1.92;;;15.20;61.70;;;;;;5034426;28;20052;-10
2023/02/07 05:07:47;;;;;;;2.30;2.05;;;15.20;61.60;;;;;;5032215;28;20040;-11
2023/02/07 05:10:13;;;;;;;2.33;2.22;;;15.30;61.70;;;;;;5033083;28;20040;-10
2023/02/07 05:12:39;;;;;;;2.22;2.08;;;15.20;61.50;;;;;;5032952;28;20121;-10
2023/02/07 05:15:05;;;;;;;2.50;2.30;;;15.40;61.40;;;;;;5034296;28;20041;-11
2023/02/07 05:17:33;;;;;;;2.25;2.05;;;15.30;61.20;;;;;;5036228;28;20059;-17
2023/02/07 05:20:00;;;;;;;2.25;2.05;;;15.30;61.30;;;;;;5034622;28;20045;-11
2023/02/07 05:22:25;;;;;;;2.30;2.05;;;15.20;61.40;;;;;;5037525;28;20051;-10
2023/02/07 05:24:51;;;;;;;2.08;1.98;;;15.30;61.50;;;;;;5036257;28;20076;-11
2023/02/07 05:27:16;;;;;;;2.50;2.30;;;15.30;61.30;;;;;;5032615;28;20127;-10
2023/02/07 05:29:42;;;;;;;2.40;2.20;;;15.20;61.60;;;;;;5050076;28;20033;-11
2023/02/07 05:34:55;;;;;;;2.00;1.90;;;15.20;61.70;;;;;;5022276;28;20063;-16
2023/02/07 05:37:21;;;;;;;2.22;2.13;;;15.20;61.60;;;;;;5034572;28;20049;-16
2023/02/07 05:39:46;;;;;;;2.83;1.83;;;15.20;61.60;;;;;;5033526;28;20483;-13
2023/02/07 05:42:12;;;;;;;1.77;1.67;;;15.30;61.30;;;;;;5035787;28;20087;-11
2023/02/07 05:44:38;;;;;;;1.70;1.60;;;15.20;61.40;;;;;;5036979;28;20090;-14
2023/02/07 05:47:03;;;;;;;2.33;1.88;;;15.20;61.30;;;;;;5036830;28;20056;-11
2023/02/07 05:49:29;;;;;;;2.13;1.92;;;15.20;61.30;;;;;;5032701;28;20045;-17
2023/02/07 05:51:54;;;;;;;1.98;1.88;;;15.20;61.50;;;;;;5033392;28;21525;-18
2023/02/07 05:54:20;;;;;;;2.05;1.85;;;15.20;61.60;;;;;;5034546;28;20413;-14
2023/02/07 05:56:45;;;;;;;1.85;1.75;;;15.20;61.30;;;;;;5034569;28;20061;-9
2023/02/07 05:59:11;;;;;;;2.10;1.90;;;15.10;61.60;;;;;;5015413;28;20073;-19
2023/02/07 06:01:36;;;;;;;1.85;1.75;;;15.20;61.30;;;;;;5026680;28;21163;-10
2023/02/07 06:04:02;;;;;;;1.92;1.65;;;15.10;61.60;;;;;;5035213;28;20458;-12
2023/02/07 06:06:28;;;;;;;2.70;1.95;;;15.20;61.30;;;;;;5035517;28;20044;-13
2023/02/07 06:08:53;;;;;;;1.80;1.70;;;15.20;61.40;;;;;;5034595;28;20044;-15
2023/02/07 06:11:19;;;;;;;33.35;20.50;;;15.10;61.70;;;;;;5036038;28;20075;-11
2023/02/07 06:13:44;;;;;;;23.88;14.80;;;15.10;63.60;;;;;;5032219;28;21665;-11
2023/02/07 06:16:10;;;;;;;19.45;12.95;;;15.00;64.60;;;;;;5032191;28;20048;-10
2023/02/07 06:18:36;;;;;;;19.50;11.30;;;15.00;65.50;;;;;;5033966;28;20782;-14
2023/02/07 06:21:02;;;;;;;15.60;10.55;;;15.00;65.40;;;;;;5029146;28;20186;-12
2023/02/07 06:23:28;;;;;;;26.67;15.95;;;15.10;65.20;;;;;;5032764;28;20515;-11
2023/02/07 06:25:53;;;;;;;26.42;14.77;;;15.10;65.20;;;;;;5032476;28;20052;-20
2023/02/07 06:28:19;;;;;;;27.00;15.85;;;15.20;65.20;;;;;;5026603;28;20092;-24
2023/02/07 06:30:45;;;;;;;20.50;12.77;;;15.20;65.00;;;;;;5033746;28;20074;-10
2023/02/07 06:33:10;;;;;;;22.15;13.25;;;15.20;64.70;;;;;;5029134;28;20060;-12
2023/02/07 06:35:36;;;;;;;23.10;14.38;;;15.20;64.90;;;;;;5024071;28;20053;-16
2023/02/07 06:38:02;;;;;;;20.90;13.25;;;15.30;64.30;;;;;;5029723;28;20188;-10
2023/02/07 06:40:27;;;;;;;21.80;14.05;;;15.20;64.60;;;;;;5032033;28;20600;-21
2023/02/07 06:42:53;;;;;;;17.67;12.88;;;15.20;64.50;;;;;;5037799;28;20274;-10
2023/02/07 06:45:19;;;;;;;20.00;12.60;;;15.10;64.70;;;;;;5031200;28;20872;-10
2023/02/07 06:47:45;;;;;;;20.02;13.60;;;15.10;64.90;;;;;;5030200;28;20165;-11
2023/02/07 06:50:10;;;;;;;22.50;13.45;;;15.10;64.60;;;;;;5031556;28;20127;-10
2023/02/07 06:52:36;;;;;;;20.58;12.45;;;15.10;64.40;;;;;;5032378;28;20056;-10
2023/02/07 06:55:02;;;;;;;24.58;13.75;;;15.10;64.50;;;;;;5033479;28;20032;-20
2023/02/07 06:57:27;;;;;;;23.95;14.00;;;15.30;63.90;;;;;;5049094;28;20109;-13
2023/02/07 06:59:53;;;;;;;24.48;13.18;;;15.30;63.60;;;;;;5033422;28;20083;-10
2023/02/07 07:02:19;;;;;;;22.15;14.10;;;15.30;63.20;;;;;;5046744;28;20053;-11
2023/02/07 07:04:44;;;;;;;25.95;13.48;;;15.30;63.30;;;;;;5038754;28;20047;-10
2023/02/07 07:07:10;;;;;;;20.00;13.10;;;15.20;63.60;;;;;;5045677;28;20064;-11
2023/02/07 07:09:35;;;;;;;17.63;12.93;;;15.20;63.70;;;;;;5042021;28;20055;-17
2023/02/07 07:12:01;;;;;;;18.13;11.20;;;15.30;63.80;;;;;;5044379;28;20996;-11
2023/02/07 07:14:27;;;;;;;19.10;12.88;;;15.20;64.40;;;;;;5038184;28;20037;-11
2023/02/07 07:16:54;;;;;;;17.83;11.95;;;15.20;64.70;;;;;;5037366;28;20506;-10
2023/02/07 07:19:19;;;;;;;16.38;11.70;;;15.20;64.10;;;;;;5040029;28;20044;-10
2023/02/07 07:21:45;;;;;;;16.13;11.40;;;15.20;64.10;;;;;;5041112;28;20044;-13
2023/02/07 07:24:10;;;;;;;16.60;11.65;;;15.30;64.00;;;;;;5041249;28;23126;-15
2023/02/07 07:26:36;;;;;;;20.55;11.35;;;15.20;63.80;;;;;;5042071;28;20059;-21
2023/02/07 07:29:02;;;;;;;16.65;11.40;;;15.10;64.50;;;;;;5055239;28;20534;-11
2023/02/07 07:31:27;;;;;;;17.60;11.80;;;15.20;64.70;;;;;;5042172;28;20072;-14
2023/02/07 07:33:53;;;;;;;17.08;11.55;;;15.10;64.60;;;;;;5041043;28;20496;-15
2023/02/07 07:36:19;;;;;;;18.73;11.13;;;15.20;64.70;;;;;;5043072;28;20178;-15
2023/02/07 07:38:45;;;;;;;17.38;11.65;;;15.10;64.50;;;;;;5040772;28;20140;-14
2023/02/07 07:41:10;;;;;;;16.02;11.48;;;15.10;64.50;;;;;;5043973;28;20045;-10
2023/02/07 07:43:36;;;;;;;16.70;10.70;;;15.00;64.50;;;;;;5043823;28;20521;-20
2023/02/07 07:46:01;;;;;;;15.45;10.65;;;15.10;64.60;;;;;;5047559;28;20059;-11
2023/02/07 07:48:27;;;;;;;15.77;10.27;;;15.10;64.50;;;;;;5049046;28;20037;-22
2023/02/07 07:50:53;;;;;;;17.08;10.93;;;15.10;64.50;;;;;;5049410;28;20060;-10
2023/02/07 07:53:18;;;;;;;14.18;9.95;;;15.10;64.60;;;;;;5051936;28;20101;-14
2023/02/07 07:55:49;;;;;;;13.10;10.35;;;15.10;64.70;;;;;;5051711;28;20121;-13
2023/02/07 07:58:14;;;;;;;15.73;11.07;;;15.10;64.30;;;;;;5050066;28;20048;-10
2023/02/07 08:00:40;;;;;;;17.30;10.40;;;15.20;64.30;;;;;;5050381;28;20052;-10
2023/02/07 08:03:06;;;;;;;16.40;9.98;;;15.10;64.30;;;;;;5049261;28;20056;-10
2023/02/07 08:05:31;;;;;;;13.90;10.70;;;15.10;64.20;;;;;;5051579;28;20052;-15
2023/02/07 08:07:57;;;;;;;13.85;10.15;;;15.10;64.20;;;;;;5050325;28;20135;-14
2023/02/07 08:10:22;;;;;;;15.75;10.60;;;15.00;64.30;;;;;;5049523;28;20040;-21
2023/02/07 08:12:48;;;;;;;12.05;9.63;;;15.20;64.10;;;;;;5047052;28;20075;-14
2023/02/07 08:15:13;;;;;;;12.32;8.68;;;15.20;64.00;;;;;;5048151;28;20056;-15
2023/02/07 08:17:39;;;;;;;12.40;9.40;;;15.30;63.90;;;;;;5049431;28;20143;-16
2023/02/07 08:20:05;;;;;;;13.60;10.00;;;15.30;63.80;;;;;;5048715;28;20205;-25
2023/02/07 08:22:31;;;;;;;12.88;8.93;;;15.30;64.20;;;;;;5049798;28;20050;-14
2023/02/07 08:24:56;;;;;;;11.48;8.80;;;15.40;64.30;;;;;;5047526;28;20647;-16
2023/02/07 08:27:22;;;;;;;12.48;9.25;;;15.30;64.10;;;;;;5048821;28;20072;-15
2023/02/07 08:29:47;;;;;;;13.52;9.00;;;15.40;64.10;;;;;;5048146;28;20048;-15
2023/02/07 08:32:13;;;;;;;11.65;8.70;;;15.40;64.40;;;;;;5048805;28;20595;-14
2023/02/07 08:34:39;;;;;;;11.25;9.13;;;15.30;64.40;;;;;;5048778;28;20037;-15
2023/02/07 08:37:05;;;;;;;11.60;8.43;;;15.20;64.60;;;;;;5046880;28;20059;-21
2023/02/07 08:39:31;;;;;;;12.07;8.63;;;15.30;64.10;;;;;;5065010;28;20413;-16
2023/02/07 08:41:57;;;;;;;9.95;8.02;;;15.30;64.40;;;;;;5047635;28;20055;-14
2023/02/07 08:44:22;;;;;;;11.30;8.60;;;15.40;64.20;;;;;;5050220;28;20044;-14
2023/02/07 08:46:48;;;;;;;14.18;9.07;;;15.40;64.10;;;;;;5047866;28;20529;-14
2023/02/07 08:49:13;;;;;;;11.50;9.25;;;15.30;64.10;;;;;;5047177;28;20041;-15
2023/02/07 08:51:40;;;;;;;10.05;7.95;;;15.40;64.00;;;;;;5048079;28;20057;-16
2023/02/07 08:54:06;;;;;;;9.85;7.25;;;15.50;64.50;;;;;;5046678;28;20895;-17
2023/02/07 08:56:31;;;;;;;10.18;8.02;;;15.40;63.80;;;;;;5049002;28;20046;-15
2023/02/07 08:58:57;;;;;;;11.05;8.30;;;15.40;63.90;;;;;;5047759;28;20072;-16
2023/02/07 09:01:22;;;;;;;12.85;8.70;;;15.30;64.10;;;;;;5048090;28;20033;-16
2023/02/07 09:03:48;;;;;;;7.93;7.00;;;15.30;64.10;;;;;;5047362;28;20048;-16
2023/02/07 09:06:14;;;;;;;10.52;8.07;;;15.20;64.00;;;;;;5048117;28;20055;-14
2023/02/07 09:08:39;;;;;;;8.05;7.00;;;15.20;64.30;;;;;;5047181;28;20501;-15
2023/02/07 09:11:05;;;;;;;7.63;6.82;;;15.10;64.20;;;;;;5046194;28;20032;-14
2023/02/07 09:13:30;;;;;;;10.05;6.93;;;15.10;64.30;;;;;;5045922;28;20057;-15
2023/02/07 09:15:56;;;;;;;7.55;6.72;;;15.10;64.30;;;;;;5046906;28;20037;-15
2023/02/07 09:18:25;;;;;;;7.93;6.97;;;15.10;64.20;;;;;;5046463;28;20101;-16
2023/02/07 09:20:51;;;;;;;10.18;6.80;;;15.10;64.20;;;;;;5048091;28;20502;-14
2023/02/07 09:23:18;;;;;;;7.30;6.60;;;15.20;64.10;;;;;;5047363;28;20117;-15
2023/02/07 09:25:46;;;;;;;8.35;6.70;;;15.20;64.10;;;;;;5047140;28;20037;-21
2023/02/07 09:28:12;;;;;;;7.18;6.47;;;15.20;64.00;;;;;;5046400;28;20040;-15
2023/02/07 09:30:42;;;;;;;8.02;6.40;;;15.20;64.00;;;;;;5047545;28;20095;-14
2023/02/07 09:33:08;;;;;;;8.63;6.63;;;15.30;63.80;;;;;;5046890;28;20048;-25
2023/02/07 09:35:42;;;;;;;7.50;6.75;;;15.20;63.80;;;;;;5047978;28;20044;-14
2023/02/07 09:38:10;;;;;;;7.90;6.50;;;15.30;63.90;;;;;;5046521;28;20795;-15
2023/02/07 09:40:36;;;;;;;7.78;5.93;;;15.40;64.20;;;;;;5045990;28;20133;-18
2023/02/07 09:43:39;;;;;;;8.52;7.05;;;15.40;64.50;;;;;;5045374;28;20413;-15
2023/02/07 09:46:10;;;;;;;7.43;6.13;;;15.40;64.40;;;;;;5013590;28;20084;-14
2023/02/07 09:48:49;;;;;;;7.43;6.38;;;15.30;64.10;;;;;;5013620;28;20069;-15
2023/02/07 09:51:16;;;;;;;7.25;6.47;;;15.40;64.10;;;;;;4997514;28;20140;-14
2023/02/07 09:53:44;;;;;;;7.88;7.07;;;15.50;63.90;;;;;;4981410;28;20414;-22
2023/02/07 09:56:09;;;;;;;6.45;5.85;;;15.50;63.50;;;;;;4995045;28;20053;-15
2023/02/07 09:58:50;;;;;;;7.68;5.80;;;15.50;63.60;;;;;;4997300;28;20446;-15
2023/02/07 10:01:37;;;;;;;6.72;6.00;;;15.50;63.30;;;;;;4995120;28;20050;-15
2023/02/07 10:04:19;;;;;;;7.38;5.53;;;15.60;63.30;;;;;;5001001;28;20500;-16
2023/02/07 10:06:47;;;;;;;6.78;5.28;;;15.70;63.20;;;;;;5013132;28;20079;-14
2023/02/07 10:09:20;;;;;;;5.75;5.25;;;15.70;62.90;;;;;;4995125;28;20204;-17
2023/02/07 10:12:08;;;;;;;6.00;5.40;;;15.80;62.70;;;;;;5013428;28;20082;-15
2023/02/07 10:14:36;;;;;;;6.32;5.72;;;15.80;62.70;;;;;;5013487;28;20133;-24
2023/02/07 10:17:09;;;;;;;6.13;5.13;;;15.90;62.60;;;;;;5013358;28;20034;-14
2023/02/07 10:19:41;;;;;;;5.63;5.03;;;15.90;62.50;;;;;;5013282;28;20050;-26
2023/02/07 10:22:27;;;;;;;6.55;5.95;;;15.90;62.40;;;;;;5022121;28;20040;-15
2023/02/07 10:24:59;;;;;;;5.95;5.38;;;15.90;62.40;;;;;;5051480;28;20580;-15
2023/02/07 10:27:43;;;;;;;5.55;5.05;;;15.90;62.30;;;;;;5050683;28;20522;-14
2023/02/07 10:30:15;;;;;;;5.57;5.07;;;15.90;62.30;;;;;;5046024;28;20493;-15
2023/02/07 10:32:42;;;;;;;6.15;5.55;;;15.90;62.40;;;;;;5047516;28;21880;-15
2023/02/07 10:35:29;;;;;;;5.43;5.03;;;15.90;62.50;;;;;;5048043;28;20421;-16
2023/02/07 10:37:55;;;;;;;7.43;5.45;;;15.90;62.40;;;;;;5046759;28;20507;-14
2023/02/07 10:40:33;;;;;;;6.25;5.55;;;15.90;62.40;;;;;;5051163;28;20107;-13
2023/02/07 10:43:04;;;;;;;5.43;4.93;;;15.90;62.30;;;;;;5052057;28;20048;-15
2023/02/07 10:45:30;;;;;;;5.78;5.28;;;15.90;62.40;;;;;;5047220;28;20087;-14
2023/02/07 10:47:56;;;;;;;5.05;4.70;;;15.90;62.30;;;;;;5045464;28;20056;-15
2023/02/07 10:50:24;;;;;;;5.22;4.72;;;15.90;62.30;;;;;;5053724;28;20051;-15
2023/02/07 10:52:57;;;;;;;4.40;4.10;;;15.90;62.30;;;;;;5035770;28;20087;-13
2023/02/07 10:55:37;;;;;;;4.53;4.13;;;15.90;62.10;;;;;;5051023;28;20048;-14
2023/02/07 10:58:03;;;;;;;5.22;4.72;;;16.00;63.00;;;;;;5046486;28;20544;-14
2023/02/07 11:00:30;;;;;;;4.95;4.55;;;16.00;62.20;;;;;;5051282;28;20037;-16
2023/02/07 11:03:05;;;;;;;4.65;4.25;;;16.00;62.20;;;;;;5051057;28;20144;-14
2023/02/07 11:05:35;;;;;;;4.68;4.28;;;16.00;62.30;;;;;;5046305;28;20040;-15
2023/02/07 11:08:14;;;;;;;4.65;4.25;;;16.00;62.20;;;;;;5044657;28;20044;-15
2023/02/07 11:10:41;;;;;;;4.47;4.05;;;16.00;62.20;;;;;;5046394;28;20057;-14
2023/02/07 11:13:26;;;;;;;4.20;3.90;;;16.00;62.20;;;;;;5044039;28;20075;-16
2023/02/07 11:15:55;;;;;;;4.82;4.30;;;16.00;62.10;;;;;;5063601;28;20052;-14
2023/02/07 11:18:27;;;;;;;4.50;4.10;;;16.00;62.10;;;;;;5031707;28;20378;-16
2023/02/07 11:20:55;;;;;;;3.97;3.67;;;16.00;62.10;;;;;;5060597;28;20044;-15
2023/02/07 11:23:20;;;;;;;4.38;3.97;;;16.00;62.00;;;;;;5047527;28;20118;-14
2023/02/07 11:25:46;;;;;;;3.88;3.58;;;16.10;62.00;;;;;;5044723;28;20037;-15
2023/02/07 11:28:20;;;;;;;4.28;3.88;;;16.10;62.10;;;;;;5050022;28;20040;-17
2023/02/07 11:30:46;;;;;;;3.72;3.47;;;16.10;61.90;;;;;;5049267;28;20044;-18
2023/02/07 11:33:22;;;;;;;4.82;3.63;;;16.10;61.90;;;;;;5050836;28;20036;-17
2023/02/07 11:36:21;;;;;;;3.88;3.58;;;16.10;61.80;;;;;;5040273;28;20052;-17
2023/02/07 11:38:49;;;;;;;3.50;3.30;;;16.10;61.80;;;;;;5044982;28;20421;-15
2023/02/07 11:41:17;;;;;;;3.88;3.67;;;16.10;61.90;;;;;;5046158;28;20045;-16
2023/02/07 11:43:51;;;;;;;3.67;3.38;;;16.10;61.80;;;;;;5047686;28;20513;-15
2023/02/07 11:46:17;;;;;;;4.05;3.70;;;16.10;61.80;;;;;;5043779;28;20071;-17
2023/02/07 11:48:46;;;;;;;3.88;3.53;;;16.10;61.70;;;;;;5043911;28;20501;-22
2023/02/07 11:51:15;;;;;;;3.33;3.13;;;16.20;61.90;;;;;;5043704;28;20037;-15
2023/02/07 11:53:48;;;;;;;4.10;3.80;;;16.10;61.90;;;;;;5059672;28;20045;-16
2023/02/07 11:56:50;;;;;;;3.60;3.30;;;16.20;61.80;;;;;;5034603;28;20509;-16
2023/02/07 11:59:23;;;;;;;3.13;2.92;;;16.20;61.70;;;;;;5012578;28;20239;-16
2023/02/07 12:01:51;;;;;;;4.32;3.55;;;16.20;61.70;;;;;;4995279;28;20080;-17
2023/02/07 12:04:24;;;;;;;3.53;3.22;;;16.20;61.50;;;;;;4993473;28;20103;-16
2023/02/07 12:07:18;;;;;;;3.38;3.17;;;16.20;61.70;;;;;;5009986;28;20045;-16
2023/02/07 12:09:51;;;;;;;;;;;16.20;61.50;;;;;;4994088;28;20053;-15
2023/02/07 12:12:29;;;;;;;3.20;3.00;;;16.20;61.50;;;;;;4993360;28;20795;-15
2023/02/07 12:15:01;;;;;;;3.22;2.92;;;16.20;61.40;;;;;;5009669;28;20046;-15
2023/02/07 12:17:32;;;;;;;3.65;3.35;;;16.30;61.40;;;;;;4994323;28;20057;-15
2023/02/07 12:20:03;;;;;;;3.05;2.85;;;16.20;61.30;;;;;;4978029;28;20053;-15
2023/02/07 12:22:33;;;;;;;3.38;3.13;;;16.20;61.50;;;;;;4994780;28;20719;-17
2023/02/07 12:25:15;;;;;;;3.95;2.95;;;16.30;61.30;;;;;;4977547;28;20041;-17
2023/02/07 12:27:43;;;;;;;3.08;2.88;;;16.30;61.30;;;;;;4995413;28;20144;-16
2023/02/07 12:30:23;;;;;;;3.28;2.97;;;16.30;61.30;;;;;;5010961;28;20072;-14
2023/02/07 12:32:52;;;;;;;2.72;2.55;;;16.30;61.40;;;;;;5033913;28;20053;-14
2023/02/07 12:35:17;;;;;;;2.80;2.60;;;16.30;62.20;;;;;;5044800;28;20772;-16
2023/02/07 12:38:23;;;;;;;2.63;2.53;;;16.30;61.40;;;;;;5046465;28;20090;-16
2023/02/07 12:41:13;;;;;;;2.70;2.50;;;16.30;61.50;;;;;;5044585;28;20484;-15
2023/02/07 12:43:44;;;;;;;7.50;6.10;;;16.30;61.90;;;;;;5051004;28;20085;-22
2023/02/07 12:46:31;;;;;;;21.48;12.10;;;16.30;62.10;;;;;;5037099;28;20041;-15
2023/02/07 12:49:08;;;;;;;27.52;16.73;;;16.30;62.30;;;;;;5053787;28;20053;-16
2023/02/07 12:52:16;;;;;;;43.55;23.75;;;16.30;62.40;;;;;;5053718;28;20053;-14
2023/02/07 12:55:12;;;;;;;54.78;29.13;;;16.30;62.30;;;;;;5027341;28;20183;-16
2023/02/07 12:58:19;;;;;;;60.88;34.13;;;16.40;62.30;;;;;;5012257;28;20049;-15